Time;durP1;ratioP1;P1;durP2;ratioP2;P2;SDS_P1;SDS_P2;PMS_P1;PMS_P2;Temp;Humidity;BMP_temperature;BMP_pressure;BME280_temperature;BME280_humidity;BME280_pressure;Samples;Min_cycle;Max_cycle;Signal;HPM_P1;HPM_P2
2021/04/12 00:01:12;;;;;;;156.35;62.30;;;;;;;1.25;95.27;100276.77;1709493;82;21408;-62
2021/04/12 00:03:53;;;;;;;180.70;72.12;;;;;;;1.10;99.88;100274.05;1709258;84;20928;-62
2021/04/12 00:06:44;;;;;;;152.82;62.62;;;;;;;0.99;100.00;100270.50;1709322;82;20948;-60
2021/04/12 00:09:43;;;;;;;144.45;64.62;;;;;;;0.85;100.00;100264.94;1842455;78;28294;-62
2021/04/12 00:12:48;;;;;;;171.60;65.22;;;;;;;0.71;100.00;100261.73;1784579;80;21010;-61
2021/04/12 00:15:45;;;;;;;144.87;60.40;;;;;;;0.73;100.00;100254.93;1818964;78;28054;-62
2021/04/12 00:18:36;;;;;;;139.70;55.58;;;;;;;0.68;100.00;100249.34;1751296;80;21038;-62
2021/04/12 00:21:18;;;;;;;124.55;53.23;;;;;;;0.67;100.00;100252.48;1776658;80;21374;-62
2021/04/12 00:24:03;;;;;;;112.88;45.75;;;;;;;0.72;100.00;100243.55;1842471;78;27952;-62
2021/04/12 00:26:49;;;;;;;96.12;39.03;;;;;;;0.70;100.00;100244.21;1758544;79;20881;-62
2021/04/12 00:29:45;;;;;;;78.75;36.95;;;;;;;0.72;100.00;100247.51;1742981;81;21144;-61
2021/04/12 00:32:38;;;;;;;136.97;44.63;;;;;;;0.72;100.00;100243.55;1742921;80;21017;-61
2021/04/12 00:35:24;;;;;;;121.77;46.50;;;;;;;0.72;100.00;100244.86;1743020;80;21101;-61
2021/04/12 00:38:35;;;;;;;101.38;38.98;;;;;;;0.68;100.00;100246.20;1743080;82;20895;-61
2021/04/12 00:41:19;;;;;;;131.03;48.98;;;;;;;0.60;100.00;100245.73;1742976;80;20927;-61
2021/04/12 00:44:17;;;;;;;183.25;56.18;;;;;;;0.61;100.00;100249.20;1743039;80;21583;-61
2021/04/12 00:47:23;;;;;;;204.20;65.03;;;;;;;0.55;100.00;100251.22;1743146;81;20950;-62
2021/04/12 00:50:08;;;;;;;182.93;58.40;;;;;;;0.45;100.00;100238.72;1743015;81;21062;-61
2021/04/12 00:53:20;;;;;;;129.70;44.33;;;;;;;0.41;100.00;100244.32;1742407;80;21029;-62
2021/04/12 00:56:04;;;;;;;89.15;34.18;;;;;;;0.47;100.00;100245.48;1718385;82;20939;-61
2021/04/12 00:59:04;;;;;;;91.05;34.30;;;;;;;0.53;100.00;100241.31;1743146;80;22187;-61
2021/04/12 01:01:50;;;;;;;100.58;45.73;;;;;;;0.61;100.00;100238.16;1821667;77;27671;-62
2021/04/12 01:05:16;;;;;;;66.45;29.87;;;;;;;0.60;100.00;100235.67;1771196;81;20935;-62
2021/04/12 01:08:20;;;;;;;60.85;28.77;;;;;;;0.73;100.00;100225.86;1837292;78;25436;-62
2021/04/12 01:11:31;;;;;;;65.62;31.00;;;;;;;0.76;100.00;100231.64;1809673;78;20880;-62
2021/04/12 01:14:17;;;;;;;59.58;27.95;;;;;;;0.74;100.00;100225.70;1735421;81;21385;-62
2021/04/12 01:17:29;;;;;;;62.05;26.17;;;;;;;0.62;100.00;100226.58;1706218;83;20989;-62
2021/04/12 01:20:47;;;;;;;83.30;33.55;;;;;;;0.60;100.00;100222.47;1837360;77;27982;-62
2021/04/12 01:23:24;;;;;;;;;;;;;;;0.49;100.00;100222.36;1812346;79;20897;-61
2021/04/12 01:26:37;;;;;;;72.87;31.25;;;;;;;0.47;100.00;100216.42;1809963;79;21197;-62
2021/04/12 01:29:43;;;;;;;60.98;25.97;;;;;;;0.45;100.00;100209.66;1745913;80;21076;-62
2021/04/12 01:32:58;;;;;;;50.98;25.20;;;;;;;0.40;100.00;100206.22;1746171;81;21014;-61
2021/04/12 01:36:12;;;;;;;72.53;30.82;;;;;;;0.54;100.00;100203.33;1837288;78;28251;-62
2021/04/12 01:39:05;;;;;;;94.20;33.80;;;;;;;0.50;100.00;100204.18;1809688;78;20952;-62
2021/04/12 01:41:57;;;;;;;101.50;35.73;;;;;;;0.53;100.00;100198.55;1771771;80;21450;-61
2021/04/12 01:44:48;;;;;;;126.38;42.27;;;;;;;0.52;100.00;100198.73;1771782;81;20935;-60
2021/04/12 01:47:50;;;;;;;123.07;40.65;;;;;;;0.45;100.00;100196.45;1771769;80;21124;-60
2021/04/12 01:50:57;;;;;;;102.47;36.15;;;;;;;0.33;100.00;100192.86;1771769;80;20982;-61
2021/04/12 01:53:48;;;;;;;115.70;39.13;;;;;;;0.22;100.00;100185.30;1751008;81;21464;-61
2021/04/12 01:56:30;;;;;;;100.27;38.88;;;;;;;0.18;100.00;100179.55;1712361;83;21208;-61
2021/04/12 01:59:25;;;;;;;93.07;36.10;;;;;;;0.08;100.00;100188.68;1712349;83;20943;-60
2021/04/12 02:02:37;;;;;;;106.43;40.30;;;;;;;-0.05;100.00;100179.95;1837290;78;28049;-62
2021/04/12 02:05:26;;;;;;;108.35;38.17;;;;;;;-0.26;100.00;100174.73;1750876;80;21221;-61
2021/04/12 02:08:17;;;;;;;114.05;41.53;;;;;;;-0.42;100.00;100176.57;1750511;80;21338;-61
2021/04/12 02:11:00;;;;;;;112.88;38.30;;;;;;;-0.55;100.00;100181.04;1842444;78;28308;-62
2021/04/12 02:13:52;;;;;;;91.02;34.88;;;;;;;-0.71;100.00;100178.75;1817675;79;20900;-61
2021/04/12 02:16:56;;;;;;;92.27;34.75;;;;;;;-0.79;100.00;100177.91;1786332;79;21380;-62
2021/04/12 02:19:40;;;;;;;80.12;32.83;;;;;;;-0.69;100.00;100173.30;1785417;80;20868;-62
2021/04/12 02:22:49;;;;;;;72.20;32.48;;;;;;;-0.60;100.00;100162.27;1785496;80;21425;-62
2021/04/12 02:25:47;;;;;;;116.30;33.50;;;;;;;-0.59;100.00;100167.84;1785349;80;20927;-62
2021/04/12 02:29:01;;;;;;;101.35;34.23;;;;;;;-0.64;100.00;100174.94;1784993;80;20994;-62
2021/04/12 02:31:52;;;;;;;87.88;33.60;;;;;;;-0.66;100.00;100163.76;1784798;80;21312;-62
2021/04/12 02:34:37;;;;;;;96.92;33.38;;;;;;;-0.82;100.00;100158.48;1785427;80;20931;-62
2021/04/12 02:37:28;;;;;;;106.35;35.48;;;;;;;-0.93;100.00;100163.09;1785443;80;21030;-62
2021/04/12 02:40:13;;;;;;;98.92;32.03;;;;;;;-1.03;100.00;100165.54;1785524;80;20956;-62
2021/04/12 02:43:20;;;;;;;80.28;34.05;;;;;;;-1.10;100.00;100158.30;1785468;80;20852;-62
2021/04/12 02:46:03;;;;;;;86.28;32.95;;;;;;;-1.18;100.00;100164.04;1785586;80;21451;-62
2021/04/12 02:48:42;;;;;;;91.47;33.85;;;;;;;-1.26;100.00;100160.91;1785344;80;20899;-62
2021/04/12 02:51:25;;;;;;;98.87;37.13;;;;;;;-1.21;100.00;100155.97;1785464;80;20904;-62
2021/04/12 02:54:15;;;;;;;85.62;35.70;;;;;;;-1.21;100.00;100152.52;1784626;80;21472;-62
2021/04/12 02:57:05;;;;;;;105.15;39.48;;;;;;;-1.07;100.00;100150.56;1784707;80;20904;-61
2021/04/12 03:00:00;;;;;;;100.58;37.63;;;;;;;-0.99;100.00;100151.06;1785473;80;21266;-61
2021/04/12 03:03:11;;;;;;;202.70;62.38;;;;;;;-0.96;100.00;100150.22;1723871;82;20995;-62
2021/04/12 03:05:47;;;;;;;191.30;57.30;;;;;;;-0.99;100.00;100147.11;1723886;82;20937;-61
2021/04/12 03:08:44;;;;;;;159.93;54.38;;;;;;;-1.00;100.00;100145.47;1723822;83;21544;-61
2021/04/12 03:11:50;;;;;;;152.50;50.55;;;;;;;-0.95;100.00;100141.34;1842243;77;27981;-62
2021/04/12 03:14:32;;;;;;;142.98;47.55;;;;;;;-0.96;100.00;100140.18;1779744;79;20892;-61
2021/04/12 03:17:26;;;;;;;148.57;49.83;;;;;;;-1.03;100.00;100137.88;1774351;81;21467;-62
2021/04/12 03:20:10;;;;;;;124.75;43.68;;;;;;;-1.09;100.00;100133.59;1632265;86;21099;-61
2021/04/12 03:22:45;;;;;;;127.78;49.80;;;;;;;-1.14;100.00;100130.62;1602919;89;21110;-61
2021/04/12 03:25:54;;;;;;;133.70;48.42;;;;;;;-1.18;100.00;100141.65;1604927;88;21094;-61
2021/04/12 03:28:49;;;;;;;152.02;48.92;;;;;;;-1.30;100.00;100135.87;1603094;88;21018;-61
2021/04/12 03:31:43;;;;;;;141.10;48.80;;;;;;;-1.43;100.00;100136.84;1604999;88;21234;-61
2021/04/12 03:34:34;;;;;;;131.40;45.80;;;;;;;-1.49;100.00;100130.89;1602973;88;20987;-61
2021/04/12 03:37:13;;;;;;;120.30;42.03;;;;;;;-1.43;100.00;100138.16;1582206;89;20935;-61
2021/04/12 03:40:19;;;;;;;128.93;43.35;;;;;;;-1.21;100.00;100140.16;1864888;75;27933;-62
2021/04/12 03:43:21;;;;;;;149.20;48.78;;;;;;;-1.20;100.00;100131.30;1841437;76;21006;-61
2021/04/12 03:46:29;;;;;;;131.82;44.50;;;;;;;-1.19;100.00;100144.78;1830347;76;21409;-61
2021/04/12 03:49:39;;;;;;;207.20;65.83;;;;;;;-1.12;100.00;100143.15;1806202;78;21037;-62
2021/04/12 03:52:21;;;;;;;575.45;182.82;;;;;;;-1.03;100.00;100136.55;1810157;78;20904;-62
2021/04/12 03:55:00;;;;;;;470.48;152.30;;;;;;;-0.91;100.00;100140.04;1804224;78;21118;-62
2021/04/12 03:57:46;;;;;;;;;;;;;;;-0.79;100.00;100142.33;1808821;78;21050;-62
2021/04/12 04:00:31;;;;;;;238.72;78.80;;;;;;;-0.66;100.00;100147.94;1759635;81;21447;-62
2021/04/12 04:03:35;;;;;;;193.00;68.10;;;;;;;-0.43;100.00;100145.42;1760931;80;20931;-62
2021/04/12 04:06:33;;;;;;;199.45;74.32;;;;;;;-0.22;100.00;100143.58;1752614;80;20883;-63
2021/04/12 04:09:51;;;;;;;187.47;67.62;;;;;;;0.17;100.00;100142.75;1837311;78;27946;-62
2021/04/12 04:13:04;;;;;;;160.25;60.60;;;;;;;0.31;100.00;100145.18;1809724;79;20983;-63
2021/04/12 04:15:47;;;;;;;128.60;51.15;;;;;;;0.50;100.00;100147.90;1789927;79;21213;-62
2021/04/12 04:18:25;;;;;;;145.92;55.98;;;;;;;0.76;100.00;100141.80;1777776;80;21509;-63
2021/04/12 04:21:04;;;;;;;147.93;56.48;;;;;;;1.04;100.00;100138.11;1777943;80;20987;-63
2021/04/12 04:24:03;;;;;;;145.43;57.43;;;;;;;1.28;100.00;100142.89;1777744;79;21003;-62
2021/04/12 04:27:06;;;;;;;159.72;55.95;;;;;;;1.50;100.00;100138.05;1777756;80;20951;-63
2021/04/12 04:29:46;;;;;;;115.67;44.90;;;;;;;1.80;100.00;100143.36;1745984;82;21366;-63
2021/04/12 04:32:38;;;;;;;120.40;46.90;;;;;;;2.07;100.00;100136.59;1745948;82;20990;-61
2021/04/12 04:35:19;;;;;;;112.37;44.88;;;;;;;2.29;100.00;100136.67;1716123;83;21120;-62
2021/04/12 04:38:16;;;;;;;116.30;48.35;;;;;;;2.50;100.00;100135.87;1716216;83;20934;-63
2021/04/12 04:41:18;;;;;;;130.75;53.45;;;;;;;2.90;100.00;100134.98;1837226;78;22253;-63
2021/04/12 04:44:44;;;;;;;147.82;61.00;;;;;;;3.14;100.00;100142.56;1770159;80;20987;-63
2021/04/12 04:47:37;;;;;;;94.47;41.37;;;;;;;3.51;94.28;100140.61;1770231;80;21397;-63
2021/04/12 04:50:47;;;;;;;94.45;40.75;;;;;;;3.89;87.59;100144.72;1770157;81;20932;-63
2021/04/12 04:54:15;;;;;;;64.25;32.90;;;;;;;4.32;81.98;100145.36;1842428;77;22746;-63
2021/04/12 04:57:10;;;;;;;67.45;36.08;;;;;;;4.53;79.33;100148.89;1817751;79;20884;-61
2021/04/12 04:59:52;;;;;;;64.92;33.53;;;;;;;4.76;79.08;100143.25;1817701;78;21375;-62
2021/04/12 05:03:13;;;;;;;74.17;36.25;;;;;;;4.99;77.32;100141.03;1752239;81;21210;-62
2021/04/12 05:06:34;;;;;;;73.28;37.75;;;;;;;5.28;75.52;100147.00;1752354;81;21463;-61
2021/04/12 05:09:47;;;;;;;91.82;44.77;;;;;;;5.62;71.24;100148.63;1752296;81;21444;-61
2021/04/12 05:12:49;;;;;;;88.12;46.00;;;;;;;5.80;69.51;100153.30;1752213;81;21026;-62
2021/04/12 05:15:57;;;;;;;92.00;44.05;;;;;;;6.01;69.40;100145.61;1768780;80;21269;-61
2021/04/12 05:18:50;;;;;;;90.62;45.05;;;;;;;6.21;66.28;100147.69;1791087;80;21018;-61
2021/04/12 05:21:46;;;;;;;92.42;45.63;;;;;;;6.32;64.25;100140.91;1791088;80;20943;-62
2021/04/12 05:24:54;;;;;;;84.50;43.68;;;;;;;6.69;64.28;100138.96;1837423;78;22674;-62
2021/04/12 05:27:39;;;;;;;80.30;39.23;;;;;;;6.89;63.11;100141.02;1691445;83;20904;-62
2021/04/12 05:30:53;;;;;;;90.15;45.10;;;;;;;6.97;64.52;100135.93;1691204;84;23557;-62
2021/04/12 05:34:05;;;;;;;84.07;41.23;;;;;;;7.16;62.91;100138.98;1634727;87;21234;-63
2021/04/12 05:36:51;;;;;;;81.50;40.43;;;;;;;7.36;59.99;100136.67;1634919;86;20963;-62
2021/04/12 05:39:51;;;;;;;87.80;46.75;;;;;;;7.54;59.41;100134.55;1634896;86;21043;-60
2021/04/12 05:42:54;;;;;;;74.03;37.25;;;;;;;7.77;61.73;100125.41;1635145;86;21032;-62
2021/04/12 05:46:05;;;;;;;63.80;36.70;;;;;;;8.10;60.16;100124.22;1634669;86;21372;-63
2021/04/12 05:48:54;;;;;;;57.03;31.82;;;;;;;8.28;57.45;100118.03;1634880;86;21074;-62
2021/04/12 05:51:47;;;;;;;65.70;34.05;;;;;;;8.47;57.42;100126.88;1635529;86;20958;-62
2021/04/12 05:54:32;;;;;;;73.17;36.03;;;;;;;8.52;57.81;100127.83;1634624;86;21014;-62
2021/04/12 05:57:18;;;;;;;64.75;34.45;;;;;;;8.56;58.15;100123.67;1641513;84;21145;-63
2021/04/12 06:00:24;;;;;;;65.22;34.27;;;;;;;8.76;59.59;100124.73;1691207;83;21380;-61
2021/04/12 06:03:20;;;;;;;61.28;33.92;;;;;;;8.85;56.29;100123.09;1691131;83;20967;-63
2021/04/12 06:06:25;;;;;;;64.37;33.98;;;;;;;8.61;56.01;100126.20;1691203;84;20999;-60
2021/04/12 06:09:21;;;;;;;67.30;33.95;;;;;;;8.70;56.10;100120.83;1691119;83;21098;-60
2021/04/12 06:12:16;;;;;;;58.92;34.90;;;;;;;9.02;58.04;100124.06;1837250;78;22690;-61
2021/04/12 06:15:10;;;;;;;47.25;29.05;;;;;;;9.00;56.35;100120.80;1798629;79;20932;-61
2021/04/12 06:17:44;;;;;;;46.33;27.55;;;;;;;9.50;57.22;100127.61;1685983;84;22064;-62
2021/04/12 06:20:46;;;;;;;49.67;28.52;;;;;;;9.90;55.77;100121.02;1686064;85;21512;-62
2021/04/12 06:23:59;;;;;;;49.55;28.38;;;;;;;10.17;56.00;100128.56;1686092;84;21005;-63
2021/04/12 06:26:59;;;;;;;50.67;27.73;;;;;;;10.66;53.06;100119.62;1837627;78;22623;-62
2021/04/12 06:29:47;;;;;;;50.78;29.32;;;;;;;10.89;53.62;100126.73;1809660;78;21469;-62
2021/04/12 06:32:40;;;;;;;50.23;27.75;;;;;;;11.21;51.92;100122.17;1739792;82;22199;-62
2021/04/12 06:35:32;;;;;;;49.90;30.27;;;;;;;11.57;50.43;100118.17;1739414;82;21000;-63
2021/04/12 06:38:55;;;;;;;47.38;28.70;;;;;;;11.89;49.65;100108.97;1837316;76;22729;-63
2021/04/12 06:42:19;;;;;;;42.75;28.12;;;;;;;12.12;47.87;100125.93;1809720;78;20935;-63
2021/04/12 06:45:17;;;;;;;43.98;26.82;;;;;;;12.30;46.99;100124.28;1809672;79;21373;-63
2021/04/12 06:48:25;;;;;;;45.38;26.82;;;;;;;12.44;46.81;100124.19;1809581;79;20904;-63
2021/04/12 06:51:35;;;;;;;43.23;27.50;;;;;;;12.78;46.83;100121.83;1809639;78;20968;-62
2021/04/12 06:54:43;;;;;;;52.70;29.25;;;;;;;12.95;45.52;100119.03;1809607;79;20904;-64
2021/04/12 06:57:29;;;;;;;52.62;28.83;;;;;;;13.11;45.00;100111.37;1809584;78;20976;-64
2021/04/12 07:00:05;;;;;;;49.25;28.47;;;;;;;13.38;44.64;100115.39;1809633;78;21358;-64
2021/04/12 07:03:14;;;;;;;63.95;39.10;;;;;;;13.46;42.64;100118.94;1809701;79;21418;-63
2021/04/12 07:06:05;;;;;;;51.80;32.58;;;;;;;13.60;42.87;100114.47;1809649;79;20916;-65
2021/04/12 07:08:57;;;;;;;41.55;26.50;;;;;;;13.72;42.24;100106.98;1809621;78;20964;-62
2021/04/12 07:12:15;;;;;;;45.88;26.05;;;;;;;13.71;42.02;100106.15;1809655;79;21011;-62
2021/04/12 07:15:22;;;;;;;41.73;24.60;;;;;;;13.91;42.41;100101.42;1800484;79;21359;-64
2021/04/12 07:18:38;;;;;;;39.55;25.72;;;;;;;13.87;41.63;100094.11;1777720;80;21003;-62
2021/04/12 07:21:39;;;;;;;39.10;24.07;;;;;;;13.94;42.42;100092.80;1777976;79;20932;-65
2021/04/12 07:24:33;;;;;;;37.48;22.77;;;;;;;14.01;41.14;100095.23;1777555;79;20896;-64
2021/04/12 07:27:27;;;;;;;42.13;24.23;;;;;;;13.82;40.83;100097.59;1777725;80;21488;-62
2021/04/12 07:30:43;;;;;;;36.35;20.75;;;;;;;13.87;42.10;100088.72;1777149;79;21402;-62
2021/04/12 07:33:41;;;;;;;35.63;23.50;;;;;;;13.96;40.82;100086.31;1777451;80;21814;-63
2021/04/12 07:36:29;;;;;;;35.38;22.22;;;;;;;14.02;41.47;100084.73;1779744;79;20944;-63
2021/04/12 07:39:40;;;;;;;36.40;20.45;;;;;;;14.18;42.39;100087.48;1779336;79;20905;-61
2021/04/12 07:42:55;;;;;;;43.30;24.72;;;;;;;14.42;39.93;100091.89;1801360;79;20881;-64
2021/04/12 07:46:11;;;;;;;29.37;18.17;;;;;;;14.40;39.45;100081.34;1801638;79;22269;-63
2021/04/12 07:49:28;;;;;;;33.63;20.75;;;;;;;14.52;39.00;100087.31;1801108;79;20984;-63
2021/04/12 07:52:34;;;;;;;32.50;21.97;;;;;;;14.47;38.71;100087.84;1681963;84;21004;-64
2021/04/12 07:55:16;;;;;;;37.65;21.42;;;;;;;14.57;39.64;100077.90;1682204;84;21008;-63
2021/04/12 07:58:28;;;;;;;35.85;21.52;;;;;;;14.66;41.17;100074.69;1837274;78;22807;-64
2021/04/12 08:01:45;;;;;;;34.90;21.50;;;;;;;14.62;39.74;100078.45;1808863;79;21495;-64
2021/04/12 08:04:47;;;;;;;39.08;23.67;;;;;;;14.84;38.79;100081.45;1808940;79;21368;-65
2021/04/12 08:08:10;;;;;;;33.38;19.92;;;;;;;15.03;39.22;100082.55;1833628;77;20984;-65
2021/04/12 08:11:35;;;;;;;30.60;19.80;;;;;;;15.26;39.09;100072.27;1845220;77;20923;-66
2021/04/12 08:14:43;;;;;;;29.07;18.37;;;;;;;15.38;37.97;100072.78;1844612;77;21034;-64
2021/04/12 08:17:52;;;;;;;27.35;16.80;;;;;;;15.61;37.64;100064.09;1698839;84;20951;-64
2021/04/12 08:21:11;;;;;;;26.40;16.35;;;;;;;15.52;34.49;100056.27;1699516;83;21207;-62
2021/04/12 08:24:07;;;;;;;24.92;16.00;;;;;;;15.57;34.00;100050.84;1699878;84;20912;-62
2021/04/12 08:27:12;;;;;;;23.98;15.95;;;;;;;15.91;32.98;100044.00;1699316;84;21487;-63
2021/04/12 08:30:16;;;;;;;21.27;14.93;;;;;;;15.88;33.19;100044.56;1699051;84;20962;-62
2021/04/12 08:33:20;;;;;;;25.70;15.25;;;;;;;16.11;33.62;100046.61;1698190;83;21060;-60
2021/04/12 08:36:46;;;;;;;32.20;16.40;;;;;;;16.50;31.82;100042.59;1636778;87;21929;-60
2021/04/12 08:39:27;;;;;;;;;;;;;;;17.10;31.80;100037.02;1638689;86;21040;-61
2021/04/12 08:42:09;;;;;;;22.80;14.10;;;;;;;16.75;32.24;100029.95;1636687;86;20205;-62
2021/04/12 08:45:15;;;;;;;26.25;15.08;;;;;;;16.58;33.13;100022.22;1636738;86;21003;-62
2021/04/12 08:48:07;;;;;;;25.15;16.97;;;;;;;16.65;32.66;100008.35;1637132;86;21446;-61
2021/04/12 08:51:06;;;;;;;24.30;15.15;;;;;;;17.11;33.07;100002.02;1890288;76;23207;-61
2021/04/12 08:53:52;;;;;;;27.65;16.02;;;;;;;17.32;31.65;100008.58;1861227;77;21537;-62
2021/04/12 08:56:51;;;;;;;26.45;16.48;;;;;;;17.46;32.19;100002.73;1778041;80;21146;-62
2021/04/12 08:59:58;;;;;;;22.05;15.05;;;;;;;17.69;30.77;100000.33;1778055;80;20936;-62
2021/04/12 09:03:10;;;;;;;28.50;16.27;;;;;;;17.67;32.53;99992.46;1778169;80;20976;-61
2021/04/12 09:06:32;;;;;;;19.62;12.90;;;;;;;17.55;30.64;99987.99;1715855;83;21055;-61
2021/04/12 09:09:42;;;;;;;19.65;13.03;;;;;;;17.79;29.84;99986.63;1715860;81;20925;-60
2021/04/12 09:12:47;;;;;;;17.55;12.47;;;;;;;17.20;29.70;99984.58;1715908;83;21394;-59
2021/04/12 09:16:03;;;;;;;18.05;13.05;;;;;;;17.01;29.53;99972.84;1818444;77;22750;-60
2021/04/12 09:18:56;;;;;;;30.12;15.03;;;;;;;17.02;29.28;99973.09;1777722;80;20904;-60
2021/04/12 09:22:14;;;;;;;25.55;15.43;;;;;;;17.01;29.45;99957.38;1681314;84;21011;-60
2021/04/12 09:25:24;;;;;;;22.40;14.47;;;;;;;17.20;30.03;99961.53;1676008;85;20941;-60
2021/04/12 09:28:28;;;;;;;18.30;13.43;;;;;;;17.40;29.38;99952.34;1623779;87;20947;-60
2021/04/12 09:31:27;;;;;;;22.30;15.30;;;;;;;17.52;29.37;99945.16;1656124;85;20957;-61
2021/04/12 09:34:26;;;;;;;19.80;13.68;;;;;;;16.91;29.95;99944.72;1665287;83;21095;-60
2021/04/12 09:37:18;;;;;;;18.82;13.30;;;;;;;16.94;29.72;99928.43;1677034;85;21444;-62
2021/04/12 09:40:30;;;;;;;21.07;13.45;;;;;;;16.96;29.64;99941.16;1842387;77;22711;-61
2021/04/12 09:43:13;;;;;;;24.85;14.50;;;;;;;17.29;29.45;99934.00;1817447;79;20971;-61
2021/04/12 09:46:08;;;;;;;24.85;14.30;;;;;;;17.71;29.71;99931.59;1817670;79;21178;-61
2021/04/12 09:49:12;;;;;;;18.48;13.53;;;;;;;17.40;28.49;99929.84;1817287;79;20963;-60
2021/04/12 09:52:12;;;;;;;23.98;15.03;;;;;;;17.36;27.19;99928.23;1817451;79;21030;-60
2021/04/12 09:55:02;;;;;;;25.30;15.83;;;;;;;17.18;28.07;99912.73;1817640;79;20892;-60
2021/04/12 09:58:02;;;;;;;20.00;13.78;;;;;;;17.36;28.67;99924.17;1817596;79;21438;-60
2021/04/12 10:01:10;;;;;;;19.12;12.78;;;;;;;17.56;27.35;99914.44;1817619;79;21361;-61
2021/04/12 10:03:58;;;;;;;16.30;11.97;;;;;;;17.41;27.39;99920.59;1756159;81;20939;-61
2021/04/12 10:06:40;;;;;;;19.57;12.70;;;;;;;17.53;26.82;99916.35;1724678;83;25524;-60
2021/04/12 10:09:51;;;;;;;19.65;11.55;;;;;;;17.16;26.58;99907.58;1724575;83;21042;-61
2021/04/12 10:13:08;;;;;;;21.27;12.55;;;;;;;17.24;25.70;99900.16;1723750;83;21250;-59
2021/04/12 10:16:04;;;;;;;20.15;13.05;;;;;;;17.20;25.15;99898.31;1742133;81;21192;-62
2021/04/12 10:19:03;;;;;;;21.73;12.37;;;;;;;17.51;26.12;99898.19;1825178;78;22157;-62
2021/04/12 10:22:10;;;;;;;17.00;12.00;;;;;;;17.24;26.47;99889.30;1770884;79;21019;-61
2021/04/12 10:24:59;;;;;;;17.02;11.35;;;;;;;17.24;26.47;99889.30;1640093;86;21384;-62
2021/04/12 10:27:40;;;;;;;23.90;12.53;;;;;;;17.07;24.69;99889.77;1662001;86;21030;-62
2021/04/12 10:30:24;;;;;;;16.12;11.40;;;;;;;17.05;26.37;99885.20;1662278;86;21023;-64
2021/04/12 10:32:58;;;;;;;14.13;10.20;;;;;;;17.19;26.55;99879.87;1660802;84;21035;-61
2021/04/12 10:35:40;;;;;;;24.98;10.40;;;;;;;17.29;26.18;99885.17;1693186;84;21179;-63
2021/04/12 10:38:23;;;;;;;17.15;10.68;;;;;;;17.06;28.19;99877.88;1665209;86;21227;-60
2021/04/12 10:41:35;;;;;;;15.68;10.80;;;;;;;17.30;27.13;99883.29;1876278;76;22368;-62
2021/04/12 10:44:10;;;;;;;19.25;11.20;;;;;;;17.25;26.79;99880.64;1816761;79;21575;-60
2021/04/12 10:46:47;;;;;;;18.55;12.00;;;;;;;17.24;26.00;99892.58;1816940;79;21413;-60
2021/04/12 10:49:25;;;;;;;13.22;8.95;;;;;;;17.16;25.52;99884.53;1816291;79;21015;-60
2021/04/12 10:52:16;;;;;;;14.23;9.58;;;;;;;17.21;25.00;99881.75;1808809;79;21007;-59
2021/04/12 10:55:10;;;;;;;14.90;9.78;;;;;;;17.26;24.42;99878.98;1808838;79;21019;-60
2021/04/12 10:58:08;;;;;;;20.30;9.40;;;;;;;17.31;23.12;99871.33;1808680;79;21023;-59
2021/04/12 11:01:06;;;;;;;16.27;9.30;;;;;;;17.21;23.31;99871.46;1808563;79;21345;-59
2021/04/12 11:04:03;;;;;;;11.60;8.20;;;;;;;17.39;22.50;99876.09;1807623;77;20951;-60
2021/04/12 11:07:09;;;;;;;17.82;8.50;;;;;;;17.43;22.78;99876.34;1813987;79;20968;-60
2021/04/12 11:09:53;;;;;;;20.12;9.28;;;;;;;17.76;23.16;99873.16;1816876;79;21110;-60
2021/04/12 11:12:48;;;;;;;12.28;9.30;;;;;;;17.65;23.07;99871.70;1735993;82;21234;-60
2021/04/12 11:15:53;;;;;;;17.02;10.68;;;;;;;18.03;23.81;99867.11;1721383;81;21387;-60
2021/04/12 11:19:12;;;;;;;15.05;10.05;;;;;;;18.32;24.05;99861.45;1825918;78;27786;-59
2021/04/12 11:22:01;;;;;;;11.80;9.28;;;;;;;18.16;23.97;99867.70;1805851;79;21486;-60
2021/04/12 11:25:02;;;;;;;15.58;10.15;;;;;;;18.03;24.66;99859.48;1803296;79;21031;-60
2021/04/12 11:27:42;;;;;;;14.33;8.83;;;;;;;18.21;24.03;99857.30;1803271;79;21027;-61
2021/04/12 11:30:47;;;;;;;15.40;9.65;;;;;;;18.37;24.10;99856.48;1772152;79;21474;-61
2021/04/12 11:33:47;;;;;;;20.37;11.65;;;;;;;18.42;25.36;99838.73;1806053;78;20985;-60
2021/04/12 11:36:30;;;;;;;16.93;10.25;;;;;;;18.10;26.04;99848.50;1822831;78;21622;-61
2021/04/12 11:39:25;;;;;;;13.83;9.15;;;;;;;18.32;25.89;99841.63;1807579;77;21358;-60
2021/04/12 11:41:59;;;;;;;13.05;9.20;;;;;;;18.21;26.78;99840.45;1808136;77;20948;-59
2021/04/12 11:44:52;;;;;;;13.20;10.50;;;;;;;18.02;26.35;99842.95;1804298;77;20971;-59
2021/04/12 11:47:39;;;;;;;19.37;10.53;;;;;;;17.84;26.99;99839.16;1786115;77;21141;-59
2021/04/12 11:50:28;;;;;;;14.00;9.90;;;;;;;17.73;26.82;99830.31;1784922;80;21097;-59
2021/04/12 11:53:47;;;;;;;15.93;10.72;;;;;;;17.83;27.45;99827.47;1784752;80;21392;-59
2021/04/12 11:56:38;;;;;;;21.35;10.95;;;;;;;17.86;28.11;99819.28;1784796;80;21520;-58
2021/04/12 11:59:33;;;;;;;15.93;9.75;;;;;;;18.13;27.39;99816.69;1685623;85;21154;-59
2021/04/12 12:02:22;;;;;;;11.43;8.63;;;;;;;18.21;27.50;99813.84;1629891;87;21097;-58
2021/04/12 12:04:58;;;;;;;17.60;8.95;;;;;;;18.14;26.75;99810.14;1630021;88;21031;-59
2021/04/12 12:07:48;;;;;;;14.15;9.40;;;;;;;18.15;27.30;99801.43;1635088;87;21429;-59
2021/04/12 12:10:42;;;;;;;12.65;9.20;;;;;;;18.17;26.61;99806.82;1637096;87;21195;-59
2021/04/12 12:13:38;;;;;;;14.80;9.40;;;;;;;18.17;26.61;99806.82;1636921;87;21062;-59
2021/04/12 12:16:41;;;;;;;15.53;10.75;;;;;;;18.11;26.53;99795.80;1629945;86;21493;-59
2021/04/12 12:19:41;;;;;;;24.47;11.38;;;;;;;18.27;26.97;99788.17;1828960;78;22284;-60
2021/04/12 12:22:44;;;;;;;11.20;8.23;;;;;;;18.36;27.27;99791.82;1785490;79;20948;-61
2021/04/12 12:25:22;;;;;;;13.72;8.28;;;;;;;18.83;26.18;99787.14;1705500;83;21055;-60
2021/04/12 12:28:22;;;;;;;17.02;8.95;;;;;;;19.13;26.03;99783.53;1673650;85;21579;-61
2021/04/12 12:31:32;;;;;;;13.18;7.45;;;;;;;19.09;24.25;99782.55;1873611;76;22614;-59
2021/04/12 12:34:33;;;;;;;9.95;7.20;;;;;;;18.70;23.58;99781.13;1849572;77;21136;-60
2021/04/12 12:37:09;;;;;;;9.90;7.37;;;;;;;18.37;23.61;99786.66;1864188;77;21299;-59
2021/04/12 12:39:51;;;;;;;14.03;8.80;;;;;;;18.39;23.99;99785.78;1780188;78;20947;-60
2021/04/12 12:42:38;;;;;;;11.22;7.80;;;;;;;18.50;24.53;99789.69;1773804;79;20947;-60
2021/04/12 12:45:16;;;;;;;11.43;7.83;;;;;;;18.73;23.42;99782.44;1781285;79;20924;-59
2021/04/12 12:47:50;;;;;;;10.93;7.55;;;;;;;18.87;24.12;99778.41;1805381;79;20956;-59
2021/04/12 12:50:47;;;;;;;9.65;7.47;;;;;;;19.11;22.91;99774.06;1837317;78;22662;-60
2021/04/12 12:53:27;;;;;;;10.70;6.97;;;;;;;19.04;23.91;99771.22;1809686;78;20893;-59
2021/04/12 12:56:04;;;;;;;9.23;6.70;;;;;;;18.94;23.61;99775.52;1809692;79;21418;-61
2021/04/12 12:58:32;;;;;;;13.35;7.22;;;;;;;19.11;23.14;99764.54;1809791;79;20916;-59
2021/04/12 13:01:03;;;;;;;;;;;;;;;19.10;23.89;99763.74;1781497;79;20968;-61
2021/04/12 13:03:43;;;;;;;10.23;7.40;;;;;;;19.39;23.79;99759.28;1816417;77;20119;-60
2021/04/12 13:06:26;;;;;;;10.68;6.60;;;;;;;19.63;23.47;99749.47;1833953;78;20999;-60
2021/04/12 13:09:02;;;;;;;9.13;5.80;;;;;;;19.77;22.23;99752.17;1834911;77;21458;-59
2021/04/12 13:11:47;;;;;;;8.80;6.45;;;;;;;19.50;23.01;99748.98;1834662;77;20991;-60
2021/04/12 13:14:49;;;;;;;12.80;6.67;;;;;;;19.37;22.71;99759.34;1767072;80;20921;-59
2021/04/12 13:17:37;;;;;;;10.03;6.28;;;;;;;18.82;23.27;99746.67;1767090;81;21043;-60
2021/04/12 13:20:31;;;;;;;10.00;6.40;;;;;;;18.85;23.75;99744.70;1766887;81;21226;-60
2021/04/12 13:23:04;;;;;;;9.15;6.42;;;;;;;18.93;23.80;99743.97;1748204;80;21328;-60
2021/04/12 13:25:43;;;;;;;10.20;6.58;;;;;;;18.51;23.05;99744.53;1837386;78;22606;-59